Latest Weather Observations for Mount Crawford

IDS60801

Issued at 10:02 am CDT Monday 30 March 2015 (issued every 30 minutes, with the page automatically refreshed every 10 minutes)

About weather observations | Map of weather stations | Latest weather observations for SA | Other Formats
Station Details ID: 023878 Name: MT CRAWFORD AWS Lat: -34.73 Lon: 138.93 Height: 525.0 m
Data from the previous 72 hours. | See also: Recent months at Mount Crawford
Date/Time
CDT
Temp
°C
App
Temp
°C
Dew
Point
Rel
Hum
%
Delta-T
°C
Wind Press
QNH
hPa
Press
MSL
hPa
Rain
since 9 am
mm
Dir
 
Spd
km/h
Gust
km/h
Spd
kts
Gust
kts
30/10:00am 17.7 15.9 11.0 65 3.7 ENE 11 15 6 8 1026.1 1024.6 0.0
30/09:30am 15.8 13.7 11.2 74 2.5 E 13 17 7 9 1026.0 1024.5 0.0
30/09:00am 14.8 12.7 11.2 79 2.0 E 13 17 7 9 1025.7 1024.2 0.0
30/08:30am 13.9 11.9 11.6 86 1.3 E 13 17 7 9 1025.3 1023.7 0.0
30/08:00am 13.2 11.2 11.6 90 0.9 E 13 17 7 9 1025.0 1023.5 0.0
30/07:30am 12.6 11.0 11.7 94 0.5 ENE 11 13 6 7 1024.6 1023.1 0.0
30/07:00am 11.9 10.3 11.4 97 0.3 E 11 13 6 7 1024.3 1022.8 0.0
30/06:30am 12.2 10.1 11.3 94 0.5 ESE 13 13 7 7 1023.8 1022.2 0.0
30/06:00am 13.1 11.6 10.5 84 1.4 ESE 9 11 5 6 1023.5 1021.9 0.0
30/05:30am 13.4 11.9 9.1 75 2.2 ESE 7 9 4 5 1023.5 1021.9 0.0
30/05:00am 12.5 10.9 11.4 93 0.6 ESE 11 13 6 7 1023.4 1021.8 0.0
30/04:30am 12.6 10.4 10.8 89 1.0 ESE 13 13 7 7 1023.4 1021.8 0.0
30/04:00am 13.2 11.6 10.2 82 1.6 ESE 9 9 5 5 1023.5 1021.9 0.0
30/03:30am 13.0 11.5 10.5 85 1.3 SE 9 9 5 5 1023.5 1021.9 0.0
30/03:00am 13.4 12.0 10.8 84 1.4 ESE 9 9 5 5 1023.7 1022.1 0.0
30/02:30am 13.6 11.8 9.5 76 2.1 ESE 9 11 5 6 1024.0 1022.5 0.0
30/02:00am 14.4 12.5 9.2 71 2.7 S 9 11 5 6 1023.9 1022.4 0.0
30/01:30am 14.7 12.4 9.1 69 2.9 SSW 11 13 6 7 1024.1 1022.6 0.0
30/01:00am 15.1 12.9 9.2 68 3.1 S 11 15 6 8 1024.1 1022.6 0.0
30/12:30am 15.3 13.1 9.4 68 3.1 WSW 11 11 6 6 1024.3 1022.8 0.0
30/12:00am 15.4 13.6 9.3 67 3.2 WSW 9 11 5 6 1024.2 1022.7 0.0
 
Date/Time
CDT
Temp
°C
App
Temp
°C
Dew
Point
Rel
Hum
%
Delta-T
°C
Wind Press
QNH
hPa
Press
MSL
hPa
Rain
since 9 am
mm
Dir
 
Spd
km/h
Gust
km/h
Spd
kts
Gust
kts
29/11:30pm 15.5 13.9 8.7 64 3.5 WSW 7 9 4 5 1024.3 1022.8 0.0
29/11:00pm 15.7 13.7 8.7 63 3.7 WSW 9 9 5 5 1024.4 1022.9 0.0
29/10:30pm 16.1 14.7 8.8 62 3.8 SW 6 7 3 4 1024.4 1022.9 0.0
29/10:00pm 16.4 15.4 8.9 61 4.0 SSW 4 6 2 3 1024.3 1022.8 0.0
29/09:30pm 16.6 15.0 8.6 59 4.2 SW 7 9 4 5 1024.1 1022.6 0.0
29/09:00pm 17.1 15.5 8.0 55 4.7 SW 6 7 3 4 1024.0 1022.5 0.0
29/08:30pm 17.2 15.4 7.8 54 4.9 SW 7 9 4 5 1023.8 1022.2 0.0
29/08:00pm 17.2 15.6 7.8 54 4.9 SSW 6 9 3 5 1023.5 1021.9 0.0
29/07:30pm 17.7 15.5 8.0 53 5.1 SW 9 13 5 7 1023.2 1021.6 0.0
29/07:00pm 18.3 15.8 8.3 52 5.3 WSW 11 17 6 9 1022.9 1021.4 0.0
29/06:30pm 18.6 15.7 8.0 50 5.6 WSW 13 20 7 11 1022.7 1021.2 0.0
29/06:00pm 19.0 15.5 7.4 47 6.0 WSW 15 22 8 12 1022.5 1021.0 0.0
29/05:30pm 19.3 15.0 7.1 45 6.3 W 19 28 10 15 1022.2 1020.7 0.0
29/05:00pm 20.6 16.7 7.2 42 7.0 WSW 17 26 9 14 1022.0 1020.4 0.0
29/04:30pm 19.9 15.4 7.0 43 6.7 W 20 28 11 15 1022.0 1020.4 0.0
29/04:00pm 20.5 16.8 6.1 39 7.4 WSW 15 24 8 13 1022.1 1020.5 0.0
29/03:30pm 20.5 16.2 5.3 37 7.7 W 17 24 9 13 1022.1 1020.5 0.0
29/03:00pm 21.0 17.0 5.0 35 8.0 W 15 24 8 13 1022.3 1020.8 0.0
29/02:30pm 20.4 15.6 4.8 36 7.8 WNW 19 30 10 16 1022.5 1021.0 0.0
29/02:00pm 21.0 17.0 5.0 35 8.1 WNW 15 26 8 14 1022.7 1021.2 0.0
29/01:30pm 20.6 17.0 5.0 36 7.8 W 13 22 7 12 1022.9 1021.4 0.0
29/01:00pm 21.2 17.6 5.1 35 8.1 NNW 13 22 7 12 1023.2 1021.6 0.0
29/12:30pm 20.2 15.3 4.3 35 7.8 NW 19 28 10 15 1023.5 1021.9 0.0
29/12:00pm 19.7 15.6 4.2 36 7.6 WSW 15 26 8 14 1023.6 1022.0 0.0
29/11:30am 19.5 15.7 4.0 36 7.6 NW 13 22 7 12 1023.6 1022.0 0.0
29/11:00am 19.7 17.3 4.2 36 7.6 NNW 6 11 3 6 1023.6 1022.0 0.0
29/10:30am 19.4 16.4 4.3 37 7.4 NE 9 13 5 7 1023.8 1022.2 0.0
29/10:00am 17.6 14.6 4.2 41 6.5 NW 9 13 5 7 1024.1 1022.6 0.0
29/09:30am 17.9 15.3 4.1 40 6.7 NW 7 13 4 7 1023.9 1022.4 0.0
29/09:00am 17.0 14.4 4.3 43 6.1 NNE 7 9 4 5 1023.4 1021.8 0.0
29/08:30am 15.1 12.6 5.0 51 4.9 N 7 9 4 5 1023.2 1021.6 0.0
29/08:00am 14.9 12.1 5.1 52 4.7 NNW 9 9 5 5 1023.0 1021.5 0.0
29/07:30am 14.5 11.7 5.3 54 4.4 NNW 9 11 5 6 1022.8 1021.3 0.0
29/07:00am 14.6 11.9 5.4 54 4.5 NNW 9 9 5 5 1022.3 1020.8 0.0
29/06:30am 14.6 11.9 5.4 54 4.5 NNW 9 9 5 5 1021.9 1020.3 0.0
29/06:00am 14.4 12.1 5.5 55 4.3 NNW 7 9 4 5 1021.6 1020.0 0.0
29/05:30am 14.3 11.8 6.4 59 3.9 N 9 11 5 6 1021.3 1019.7 0.0
29/05:00am 14.1 11.2 6.7 61 3.7 N 11 13 6 7 1021.2 1019.6 0.0
29/04:30am 14.2 11.7 6.6 60 3.8 NNW 9 11 5 6 1021.0 1019.5 0.0
29/04:00am 14.3 11.7 6.2 58 4.0 N 9 11 5 6 1020.9 1019.4 0.0
29/03:30am 14.4 11.6 5.2 54 4.4 NNW 9 13 5 7 1021.2 1019.6 0.0
29/03:00am 14.0 11.0 4.3 52 4.6 N 9 13 5 7 1021.5 1019.9 0.0
29/02:30am 14.2 10.9 4.5 52 4.6 N 11 13 6 7 1021.7 1020.1 0.0
29/02:00am 14.5 11.6 4.5 51 4.8 NNW 9 13 5 7 1022.0 1020.4 0.0
29/01:30am 15.0 11.7 4.7 50 4.9 NNW 11 13 6 7 1022.1 1020.5 0.0
29/01:00am 14.5 12.0 4.5 51 4.8 NNE 7 9 4 5 1022.1 1020.5 0.0
29/12:30am 14.7 12.2 4.7 51 4.8 NNE 7 7 4 4 1022.0 1020.4 0.0
29/12:00am 14.7 12.4 4.7 51 4.8 NNE 6 7 3 4 1022.0 1020.4 0.0
 
Date/Time
CDT
Temp
°C
App
Temp
°C
Dew
Point
Rel
Hum
%
Delta-T
°C
Wind Press
QNH
hPa
Press
MSL
hPa
Rain
since 9 am
mm
Dir
 
Spd
km/h
Gust
km/h
Spd
kts
Gust
kts
28/11:30pm 15.2 13.2 4.6 49 5.1 NW 4 7 2 4 1022.3 1020.8 0.0
28/11:00pm 15.1 12.6 4.5 49 5.1 WNW 7 9 4 5 1022.4 1020.9 0.0
28/10:30pm 14.7 12.1 4.4 50 4.9 W 7 9 4 5 1022.7 1021.2 0.0
28/10:00pm 14.8 12.4 4.5 50 4.9 W 6 9 3 5 1022.8 1021.3 0.0
28/09:30pm 14.9 12.4 4.6 50 4.9 W 7 9 4 5 1022.7 1021.2 0.0
28/09:00pm 15.2 12.3 4.6 49 5.1 WSW 9 11 5 6 1022.5 1021.0 0.0
28/08:30pm 15.4 12.5 4.8 49 5.1 SW 9 13 5 7 1022.4 1020.9 0.0
28/08:00pm 15.5 12.7 5.1 50 5.1 W 9 11 5 6 1022.4 1020.9 0.0
28/07:30pm 15.9 12.7 5.2 49 5.2 WSW 11 17 6 9 1022.0 1020.4 0.0
28/07:00pm 16.6 13.1 5.3 47 5.6 WSW 13 19 7 10 1021.8 1020.2 0.0
28/06:30pm 17.7 14.2 5.3 44 6.1 WSW 13 19 7 10 1021.5 1019.9 0.0
28/06:00pm 18.0 14.5 5.6 44 6.2 WSW 13 15 7 8 1021.2 1019.6 0.0
28/05:30pm 18.1 14.3 5.7 44 6.2 WSW 15 20 8 11 1021.3 1019.7 0.0
28/05:00pm 18.7 14.6 6.2 44 6.4 W 17 32 9 17 1021.5 1019.9 0.0
28/04:30pm 19.3 14.9 6.4 43 6.6 W 19 32 10 17 1021.6 1020.0 0.0
28/04:00pm 19.3 15.3 5.0 39 7.1 WNW 15 28 8 15 1021.8 1020.2 0.0
28/03:30pm 18.7 14.1 5.5 42 6.6 WNW 19 26 10 14 1022.1 1020.5 0.0
28/03:00pm 19.1 13.8 5.2 40 6.9 NW 22 32 12 17 1022.3 1020.8 0.0
28/02:30pm 18.6 13.8 5.8 43 6.4 NW 20 28 11 15 1022.6 1021.1 0.0
28/02:00pm 18.9 15.1 7.4 47 6.0 NNW 17 24 9 13 1023.2 1021.6 0.0
28/01:30pm 17.4 13.5 7.2 51 5.2 NW 17 22 9 12 1023.5 1021.9 0.0
28/01:00pm 17.5 13.3 7.3 51 5.3 NNW 19 24 10 13 1024.0 1022.5 0.0
28/12:30pm 16.9 12.8 7.8 55 4.7 N 19 28 10 15 1024.3 1022.8 0.0
28/12:00pm 16.8 13.1 8.0 56 4.6 NNW 17 24 9 13 1024.5 1023.0 0.0
28/11:30am 15.6 11.8 7.6 59 4.1 NNE 17 24 9 13 1024.8 1023.3 0.0
28/11:00am 15.0 11.2 8.9 67 3.2 NNE 19 26 10 14 1025.0 1023.5 0.0
28/10:30am 13.7 9.4 9.2 74 2.3 NE 22 28 12 15 1025.5 1023.9 0.0
28/10:00am 11.9 8.3 11.9 100 0.0 NE 22 30 12 16 1025.6 1024.1 0.0
28/09:30am 9.9 6.3 9.9 100 0.0 ENE 19 24 10 13 1025.5 1023.9 0.0
28/09:00am 8.9 5.1 8.9 100 0.0 ENE 19 26 10 14 1025.5 1023.9 0.2
28/08:30am 8.3 4.7 8.3 100 0.0 E 17 20 9 11 1025.3 1023.7 0.2
28/08:00am 8.0 4.3 8.0 100 0.0 E 17 20 9 11 1025.2 1023.6 0.2
28/07:30am 7.5 3.7 7.5 100 0.0 E 17 20 9 11 1024.8 1023.3 0.2
28/07:00am 7.2 3.3 7.2 100 0.0 E 17 19 9 10 1024.9 1023.4 0.2
28/06:30am 7.4 3.6 7.4 100 0.0 E 17 19 9 10 1024.9 1023.4 0.2
28/06:00am 7.2 3.3 7.1 99 0.0 ESE 17 19 9 10 1024.7 1023.2 0.2
28/05:30am 7.3 3.8 7.2 99 0.0 ESE 15 17 8 9 1025.0 1023.5 0.2
28/05:00am 7.3 3.4 7.2 99 0.0 ESE 17 20 9 11 1024.7 1023.2 0.2
28/04:30am 7.5 3.7 7.4 99 0.0 ESE 17 20 9 11 1024.9 1023.4 0.0
28/04:00am 7.7 4.7 7.6 99 0.0 ESE 13 17 7 9 1024.9 1023.4 0.0
28/03:30am 8.0 4.3 7.9 99 0.0 E 17 20 9 11 1024.8 1023.3 0.0
28/03:00am 8.2 4.2 8.1 99 0.0 ESE 19 22 10 12 1025.0 1023.5 0.0
28/02:30am 8.4 4.4 8.3 99 0.0 ESE 19 20 10 11 1025.3 1023.7 0.0
28/02:00am 8.6 4.7 8.5 99 0.0 ESE 19 22 10 12 1025.9 1024.4 0.0
28/01:30am 8.7 4.6 8.6 99 0.0 ESE 20 28 11 15 1026.0 1024.5 0.0
28/01:00am 8.6 5.0 8.5 99 0.0 ESE 17 24 9 13 1025.9 1024.4 0.0
28/12:30am 9.1 5.1 9.0 99 0.1 SE 20 26 11 14 1025.9 1024.4 0.0
28/12:00am 9.2 5.7 8.7 97 0.2 SE 17 20 9 11 1026.3 1024.8 0.0
 
Date/Time
CDT
Temp
°C
App
Temp
°C
Dew
Point
Rel
Hum
%
Delta-T
°C
Wind Press
QNH
hPa
Press
MSL
hPa
Rain
since 9 am
mm
Dir
 
Spd
km/h
Gust
km/h
Spd
kts
Gust
kts
27/11:30pm 9.4 5.9 8.8 96 0.3 SE 17 19 9 10 1026.4 1024.9 0.0
27/11:00pm 9.5 6.3 8.3 92 0.6 SE 15 19 8 10 1026.7 1025.2 0.0
27/10:30pm 10.0 7.5 8.1 88 0.9 SSE 11 17 6 9 1026.9 1025.4 0.0
27/10:00pm 10.8 7.9 8.2 84 1.3 SSE 13 17 7 9 1026.9 1025.4 0.0
27/09:30pm 11.3 8.9 8.7 84 1.3 SSE 11 17 6 9 1026.9 1025.4 0.0
27/09:00pm 11.4 8.3 8.8 84 1.3 SSE 15 20 8 11 1026.6 1025.1 0.0
27/08:30pm 11.8 8.7 8.8 82 1.5 SSE 15 20 8 11 1026.6 1025.1 0.0
27/08:00pm 12.1 8.8 8.2 77 2.0 SE 15 24 8 13 1026.3 1024.8 0.0
27/07:30pm 12.6 9.6 7.9 73 2.4 SE 13 19 7 10 1026.2 1024.7 0.0
27/07:00pm 13.2 10.5 7.2 67 3.0 SE 11 17 6 9 1026.1 1024.6 0.0
27/06:30pm 13.4 9.9 7.2 66 3.1 SSE 15 22 8 12 1026.0 1024.5 0.0
27/06:00pm 13.8 9.9 7.1 64 3.3 SE 17 24 9 13 1025.9 1024.4 0.0
27/05:30pm 14.2 10.7 7.0 62 3.6 SE 15 24 8 13 1025.8 1024.3 0.0
27/05:00pm 15.0 11.1 7.1 59 4.0 SE 17 24 9 13 1025.7 1024.2 0.0
27/04:30pm 15.3 10.9 7.3 59 4.0 SSE 20 26 11 14 1025.7 1024.2 0.0
27/04:00pm 15.9 12.0 6.9 55 4.6 S 17 28 9 15 1025.8 1024.3 0.0
27/03:30pm 14.6 10.9 6.4 58 4.0 S 15 24 8 13 1026.0 1024.5 0.0
27/03:00pm 15.6 11.9 6.1 53 4.7 SSE 15 24 8 13 1026.1 1024.6 0.0
27/02:30pm 14.7 10.9 6.0 56 4.3 S 15 28 8 15 1026.3 1024.8 0.0
27/02:00pm 16.0 12.3 6.2 52 4.9 SW 15 26 8 14 1026.7 1025.2 0.0
27/01:30pm 14.5 11.1 6.1 57 4.1 SSE 13 22 7 12 1027.1 1025.6 0.0
27/01:00pm 14.4 10.3 6.0 57 4.1 S 17 24 9 13 1027.7 1026.2 0.0
27/12:30pm 13.5 9.8 6.4 62 3.5 S 15 24 8 13 1028.2 1026.7 0.0
27/12:00pm 13.4 10.1 6.3 62 3.5 S 13 20 7 11 1028.4 1026.9 0.0
27/11:30am 12.7 8.9 5.8 63 3.3 S 15 19 8 10 1028.7 1027.2 0.0
27/11:00am 12.5 7.8 6.1 65 3.1 SSW 20 30 11 16 1028.7 1027.2 0.0
27/10:30am 12.2 7.7 6.0 66 3.0 SSW 19 28 10 15 1028.8 1027.4 0.0

Other Formats:

Comma delimited format used in spreadsheet applications
http://www.bom.gov.au/fwo/IDS60801/IDS60801.94678.axf

JavaScript Object Notation format (JSON) in row-major order
http://www.bom.gov.au/fwo/IDS60801/IDS60801.94678.json